Time;durP1;ratioP1;P1;durP2;ratioP2;P2;SDS_P1;SDS_P2;PMS_P1;PMS_P2;Temp;Humidity;BMP_temperature;BMP_pressure;BME280_temperature;BME280_humidity;BME280_pressure;Samples;Min_cycle;Max_cycle;Signal;HPM_P1;HPM_P2
2021/10/03 00:06:19;;;;;;;1999.90;999.90;;;;;;;17.21;65.77;100396.69;15566640;28;20042;-60
2021/10/03 00:13:52;;;;;;;1999.90;999.90;;;;;;;17.07;65.99;100382.41;15565092;28;20097;-59
2021/10/03 00:21:25;;;;;;;1999.90;999.90;;;;;;;17.08;65.87;100379.22;15565247;28;20129;-58
2021/10/03 00:28:58;;;;;;;1999.90;999.90;;;;;;;17.34;64.88;100372.66;15547298;28;20498;-58
2021/10/03 00:36:31;;;;;;;1999.90;999.90;;;;;;;17.28;64.72;100360.09;15564659;28;20469;-61
2021/10/03 00:44:05;;;;;;;1999.90;999.90;;;;;;;17.15;64.19;100347.47;15563931;28;20058;-58
2021/10/03 00:51:37;;;;;;;1999.90;999.90;;;;;;;17.32;63.16;100358.13;15563795;28;20642;-58
2021/10/03 00:59:11;;;;;;;1999.90;999.90;;;;;;;17.30;63.00;100354.91;15562345;28;20414;-61
2021/10/03 01:06:44;;;;;;;1999.90;999.90;;;;;;;17.22;62.78;100342.72;15562211;28;20049;-59
2021/10/03 01:14:19;;;;;;;1999.90;999.90;;;;;;;17.30;61.71;100352.09;15544142;28;20096;-59
2021/10/03 01:21:53;;;;;;;1999.90;999.90;;;;;;;17.18;61.03;100344.69;15539007;28;20042;-56
2021/10/03 01:29:25;;;;;;;1999.90;999.90;;;;;;;17.21;60.38;100346.75;15500118;28;20462;-59
2021/10/03 01:36:59;;;;;;;1999.90;999.90;;;;;;;17.45;59.42;100322.00;15482078;28;20042;-57
2021/10/03 01:44:31;;;;;;;1999.90;999.90;;;;;;;17.18;59.68;100324.94;15499145;28;20491;-61
2021/10/03 01:52:05;;;;;;;1999.90;999.90;;;;;;;17.03;59.54;100326.00;15482584;28;20134;-59
2021/10/03 01:59:40;;;;;;;1999.90;999.90;;;;;;;17.22;59.09;100334.28;15499287;28;20560;-62
2021/10/03 02:07:13;;;;;;;1999.90;999.90;;;;;;;16.94;59.63;100329.13;15498089;28;20059;-60
2021/10/03 02:14:45;;;;;;;1999.90;999.90;;;;;;;16.95;59.49;100322.31;15466085;28;20054;-58
2021/10/03 02:22:19;;;;;;;1999.90;999.90;;;;;;;16.69;59.84;100322.41;15524258;28;20046;-59
2021/10/03 02:29:52;;;;;;;1999.90;999.90;;;;;;;16.67;59.78;100328.41;15558624;28;20049;-59
2021/10/03 02:37:27;;;;;;;1999.90;999.90;;;;;;;16.59;59.85;100315.41;15558234;28;20093;-58
2021/10/03 02:44:59;;;;;;;1999.90;999.90;;;;;;;16.69;59.58;100309.13;15541613;28;20168;-58
2021/10/03 02:52:32;;;;;;;1999.90;999.90;;;;;;;16.71;59.35;100312.38;15540556;28;20050;-60
2021/10/03 03:00:07;;;;;;;1999.90;999.90;;;;;;;16.63;59.18;100312.63;15556054;28;20092;-58
2021/10/03 03:07:41;;;;;;;1999.90;999.90;;;;;;;16.67;58.94;100305.88;15538588;28;20129;-61
2021/10/03 03:15:14;;;;;;;1999.90;999.90;;;;;;;16.56;59.47;100306.91;15555630;28;20080;-60
2021/10/03 03:22:47;;;;;;;1999.90;999.90;;;;;;;16.66;59.16;100290.13;15537762;28;20060;-58
2021/10/03 03:30:20;;;;;;;1999.90;999.90;;;;;;;16.84;58.65;100296.00;15555516;28;20041;-59
2021/10/03 03:37:53;;;;;;;1999.90;999.90;;;;;;;16.48;59.43;100297.56;15555306;28;20478;-58
2021/10/03 03:45:26;;;;;;;1999.90;999.90;;;;;;;16.64;58.92;100298.16;15553896;28;20528;-60
2021/10/03 03:53:00;;;;;;;1999.90;999.90;;;;;;;16.46;59.13;100291.50;15554606;28;20053;-60
2021/10/03 04:00:33;;;;;;;1999.90;999.90;;;;;;;16.39;59.55;100299.88;15555486;28;20077;-58
2021/10/03 04:08:08;;;;;;;1999.90;999.90;;;;;;;16.33;59.56;100290.94;15554655;28;20601;-60
2021/10/03 04:15:40;;;;;;;1999.90;999.90;;;;;;;16.50;59.16;100298.00;15552794;28;20108;-58
2021/10/03 04:23:14;;;;;;;1999.90;999.90;;;;;;;16.37;59.31;100291.81;15520085;28;20072;-58
2021/10/03 04:30:46;;;;;;;1999.90;999.90;;;;;;;16.42;59.42;100285.84;15480456;28;20089;-59
2021/10/03 04:38:20;;;;;;;1999.90;999.90;;;;;;;16.12;59.95;100294.28;15486790;28;20523;-61
2021/10/03 04:45:52;;;;;;;1999.90;999.90;;;;;;;16.23;59.93;100285.16;15503218;28;20050;-61
2021/10/03 04:53:25;;;;;;;1999.90;999.90;;;;;;;16.08;59.81;100287.78;15502596;28;20050;-58
2021/10/03 05:01:14;;;;;;;1999.90;999.90;;;;;;;16.36;59.18;100281.75;15502507;28;20046;-59
2021/10/03 05:08:53;;;;;;;1999.90;999.90;;;;;;;16.57;58.54;100288.81;15502051;28;20046;-61
2021/10/03 05:16:25;;;;;;;1999.90;999.90;;;;;;;16.66;58.65;100292.13;15483526;28;20645;-61
2021/10/03 05:24:00;;;;;;;1999.90;999.90;;;;;;;16.80;58.33;100288.72;15507644;28;20042;-59
2021/10/03 05:31:32;;;;;;;1999.90;999.90;;;;;;;16.59;58.61;100281.63;15561723;28;20088;-62
2021/10/03 05:39:06;;;;;;;1999.90;999.90;;;;;;;16.81;58.43;100284.72;15559737;28;20076;-61
2021/10/03 05:46:38;;;;;;;1999.90;999.90;;;;;;;17.14;57.64;100289.47;15549044;28;20071;-60
2021/10/03 05:54:12;;;;;;;1999.90;999.90;;;;;;;17.00;57.95;100288.16;15545953;28;20080;-61
2021/10/03 06:01:44;;;;;;;1999.90;999.90;;;;;;;16.73;59.06;100295.91;15559278;28;20046;-59
2021/10/03 06:09:18;;;;;;;1999.90;999.90;;;;;;;17.05;58.30;100300.25;15541704;28;20053;-58
2021/10/03 06:16:50;;;;;;;1999.90;999.90;;;;;;;16.83;58.73;100297.22;15557553;28;20410;-59
2021/10/03 06:24:24;;;;;;;1999.90;999.90;;;;;;;17.24;58.03;100291.59;15557470;28;20046;-58
2021/10/03 06:31:57;;;;;;;1999.90;999.90;;;;;;;17.22;58.24;100297.63;15557513;28;20042;-61
2021/10/03 06:39:30;;;;;;;1999.90;999.90;;;;;;;17.46;58.16;100296.22;15539558;28;20043;-59
2021/10/03 06:47:08;;;;;;;1999.90;999.90;;;;;;;17.16;58.69;100289.91;15541378;28;20068;-61
2021/10/03 06:54:41;;;;;;;1999.90;999.90;;;;;;;17.11;59.62;100288.25;15559208;28;20485;-59
2021/10/03 07:02:19;;;;;;;1999.90;999.90;;;;;;;17.12;59.50;100291.88;15541260;28;20042;-61
2021/10/03 07:09:52;;;;;;;1999.90;999.90;;;;;;;17.40;59.28;100280.84;15554547;28;20414;-59
2021/10/03 07:17:24;;;;;;;1999.90;999.90;;;;;;;17.48;59.24;100290.19;15520471;28;20042;-59
2021/10/03 07:24:58;;;;;;;1999.90;999.90;;;;;;;17.62;59.01;100301.59;15506459;28;20058;-59
2021/10/03 07:32:31;;;;;;;1999.90;999.90;;;;;;;17.77;58.49;100308.19;15493240;28;20046;-60
2021/10/03 07:40:06;;;;;;;1999.90;999.90;;;;;;;17.98;57.69;100293.41;15492435;28;20510;-60
2021/10/03 07:47:38;;;;;;;1999.90;999.90;;;;;;;17.86;57.43;100311.47;15477616;28;20050;-60
2021/10/03 07:55:12;;;;;;;1999.90;999.90;;;;;;;17.98;57.83;100301.88;15475631;28;20471;-58
2021/10/03 08:02:44;;;;;;;1999.90;999.90;;;;;;;17.93;57.23;100308.72;15494348;28;20046;-60
2021/10/03 08:10:18;;;;;;;1999.90;999.90;;;;;;;18.03;57.44;100312.78;15487214;28;20116;-60
2021/10/03 08:17:51;;;;;;;1999.90;999.90;;;;;;;18.14;57.24;100305.22;15469673;28;20047;-62
2021/10/03 08:25:24;;;;;;;1999.90;999.90;;;;;;;18.30;56.98;100290.78;15555467;28;20046;-57
2021/10/03 08:32:57;;;;;;;1999.90;999.90;;;;;;;18.42;56.86;100282.75;15547118;28;20053;-60
2021/10/03 08:40:31;;;;;;;1999.90;999.90;;;;;;;18.80;56.47;100285.34;15548129;28;20136;-57
2021/10/03 08:48:04;;;;;;;1999.90;999.90;;;;;;;19.10;55.31;100270.88;15553069;28;20034;-60
2021/10/03 08:55:38;;;;;;;1999.90;999.90;;;;;;;19.05;55.32;100277.72;15555169;28;20053;-61
2021/10/03 09:03:11;;;;;;;1999.90;999.90;;;;;;;18.93;55.37;100263.97;15562951;28;20065;-60
2021/10/03 09:10:50;;;;;;;1999.90;999.90;;;;;;;19.21;55.50;100266.84;15536682;28;20042;-62
2021/10/03 09:18:34;;;;;;;1999.90;999.90;;;;;;;19.63;55.04;100275.78;15553317;28;20057;-58
2021/10/03 09:26:13;;;;;;;1999.90;999.90;;;;;;;19.40;55.72;100274.16;15556347;28;20060;-61
2021/10/03 09:33:48;;;;;;;1999.90;999.90;;;;;;;19.97;55.48;100274.13;15592665;28;20042;-58
2021/10/03 09:41:24;;;;;;;1999.90;999.90;;;;;;;20.02;55.23;100278.56;15531467;28;20042;-56
2021/10/03 09:48:57;;;;;;;1999.90;999.90;;;;;;;20.14;54.58;100278.94;15547615;28;20065;-63
2021/10/03 09:56:31;;;;;;;1999.90;999.90;;;;;;;20.38;54.92;100277.22;15529231;28;20084;-55
2021/10/03 10:04:08;;;;;;;1999.90;999.90;;;;;;;20.70;53.63;100284.81;15532639;28;20096;-57
2021/10/03 10:11:44;;;;;;;1999.90;999.90;;;;;;;21.65;53.26;100282.56;15529741;28;20100;-59
2021/10/03 10:19:35;;;;;;;1999.90;999.90;;;;;;;21.60;51.14;100291.53;15524546;28;20060;-63
2021/10/03 10:27:08;;;;;;;1999.90;999.90;;;;;;;22.04;49.03;100275.72;15555705;28;20057;-61
2021/10/03 10:35:14;;;;;;;1999.90;999.90;;;;;;;22.92;46.87;100278.72;15539249;28;20048;-61
2021/10/03 10:42:48;;;;;;;1999.90;999.90;;;;;;;23.23;47.10;100268.09;15556350;28;20406;-61
2021/10/03 10:50:22;;;;;;;1999.90;999.90;;;;;;;24.11;45.05;100265.78;15521461;28;20069;-62
2021/10/03 10:58:15;;;;;;;1999.90;999.90;;;;;;;24.58;45.33;100267.72;15554392;28;20057;-61
2021/10/03 11:05:48;;;;;;;1999.90;999.90;;;;;;;24.76;43.47;100305.22;15554739;28;20042;-61
2021/10/03 11:13:43;;;;;;;1999.90;999.90;;;;;;;26.16;40.54;100287.19;15536117;28;20120;-61
2021/10/03 11:21:19;;;;;;;1999.90;999.90;;;;;;;25.90;40.30;100286.22;15508535;28;20141;-60
2021/10/03 11:28:55;;;;;;;1999.90;999.90;;;;;;;25.70;42.19;100291.25;15534043;28;20511;-61
2021/10/03 11:36:28;;;;;;;1999.90;999.90;;;;;;;25.95;41.95;100281.22;15545412;28;20501;-62
2021/10/03 11:44:01;;;;;;;1999.90;999.90;;;;;;;26.50;40.71;100280.13;15566643;28;20042;-62
2021/10/03 11:51:43;;;;;;;1999.90;999.90;;;;;;;25.63;42.30;100268.53;15566786;28;20137;-62
2021/10/03 11:59:21;;;;;;;1999.90;999.90;;;;;;;25.56;42.39;100260.97;15551396;28;20038;-60
2021/10/03 12:06:54;;;;;;;1999.90;999.90;;;;;;;25.43;42.83;100245.81;15545190;28;20108;-59
2021/10/03 12:14:41;;;;;;;1999.90;999.90;;;;;;;26.13;42.53;100250.09;15529127;28;20403;-62
2021/10/03 12:22:13;;;;;;;1999.90;999.90;;;;;;;28.61;37.75;100239.53;15544133;28;20586;-60
2021/10/03 12:29:57;;;;;;;1999.90;999.90;;;;;;;29.59;34.72;100248.28;15544303;28;20053;-61
2021/10/03 12:37:32;;;;;;;1999.90;999.90;;;;;;;26.93;39.36;100236.69;15522921;28;20049;-60
2021/10/03 12:45:07;;;;;;;1999.90;999.90;;;;;;;28.13;37.32;100219.53;15554924;28;20046;-59
2021/10/03 12:52:39;;;;;;;1999.90;999.90;;;;;;;29.40;35.52;100226.50;15542008;28;20056;-62
2021/10/03 13:00:13;;;;;;;1999.90;999.90;;;;;;;27.99;37.57;100231.53;15543888;28;20041;-62
2021/10/03 13:07:46;;;;;;;1999.90;999.90;;;;;;;27.37;38.75;100241.88;15562340;28;20073;-60
2021/10/03 13:15:19;;;;;;;1999.90;999.90;;;;;;;25.96;41.14;100239.97;15561043;28;20081;-61
2021/10/03 13:22:53;;;;;;;1999.90;999.90;;;;;;;26.64;40.41;100238.84;15556127;28;20052;-61
2021/10/03 13:30:26;;;;;;;;;;;;;;;26.53;41.11;100219.13;15557740;28;20050;-59
2021/10/03 13:37:59;;;;;;;1999.90;999.90;;;;;;;26.76;42.08;100226.59;15542548;28;19922;-59
2021/10/03 13:45:32;;;;;;;;;;;;;;;27.13;40.69;100244.31;15542298;28;20045;-59
2021/10/03 13:53:05;;;;;;;1999.90;999.90;;;;;;;26.58;42.36;100238.63;15541788;28;20020;-58
2021/10/03 14:00:38;;;;;;;;;;;;;;;25.97;41.51;100242.38;15557676;28;20042;-61
2021/10/03 14:08:10;;;;;;;1999.90;999.90;;;;;;;26.13;41.36;100233.75;15534186;28;19921;-61
2021/10/03 14:15:44;;;;;;;1999.90;999.90;;;;;;;25.97;40.43;100245.25;15557196;28;20048;-61
2021/10/03 14:23:16;;;;;;;1999.90;999.90;;;;;;;25.70;43.03;100244.75;15555807;28;20045;-60
2021/10/03 14:30:50;;;;;;;1999.90;999.90;;;;;;;25.40;43.31;100235.25;15553757;28;20514;-60
2021/10/03 14:38:22;;;;;;;1999.90;999.90;;;;;;;25.02;44.12;100237.84;15540090;28;20447;-60
2021/10/03 14:45:56;;;;;;;1999.90;999.90;;;;;;;24.82;44.72;100246.41;15535468;28;20077;-61
2021/10/03 14:53:31;;;;;;;1999.90;999.90;;;;;;;24.63;44.49;100241.56;15545787;28;20046;-61
2021/10/03 15:01:04;;;;;;;1999.90;999.90;;;;;;;24.30;45.66;100244.25;15534373;28;20041;-61
2021/10/03 15:08:37;;;;;;;1999.90;999.90;;;;;;;24.08;45.95;100252.41;15553459;28;20041;-62
2021/10/03 15:16:10;;;;;;;1999.90;999.90;;;;;;;23.93;45.76;100224.63;15552925;28;20073;-60
2021/10/03 15:23:42;;;;;;;1999.90;999.90;;;;;;;23.64;46.85;100236.53;15540309;28;20044;-57
2021/10/03 15:31:16;;;;;;;1999.90;999.90;;;;;;;23.82;45.81;100250.47;15552941;28;20065;-59
2021/10/03 15:38:49;;;;;;;1999.90;999.90;;;;;;;23.96;45.90;100258.72;15550721;28;20768;-54
2021/10/03 15:46:24;;;;;;;1999.90;999.90;;;;;;;23.96;47.04;100255.09;15552209;28;20637;-57
2021/10/03 15:53:57;;;;;;;1999.90;999.90;;;;;;;23.41;47.08;100256.44;15555878;28;20037;-59
2021/10/03 16:01:30;;;;;;;1999.90;999.90;;;;;;;23.74;46.21;100260.38;15541515;28;20042;-61
2021/10/03 16:09:03;;;;;;;1999.90;999.90;;;;;;;23.51;46.40;100250.56;15551726;28;20057;-62
2021/10/03 16:16:37;;;;;;;1999.90;999.90;;;;;;;23.47;46.30;100268.97;15544639;28;20070;-61
2021/10/03 16:24:09;;;;;;;1999.90;999.90;;;;;;;23.37;46.86;100279.28;15544872;28;20074;-61
2021/10/03 16:31:43;;;;;;;1999.90;999.90;;;;;;;23.19;48.11;100288.09;15559895;28;20097;-59
2021/10/03 16:39:16;;;;;;;1999.90;999.90;;;;;;;23.18;48.11;100300.72;15558843;28;20519;-60
2021/10/03 16:46:49;;;;;;;1999.90;999.90;;;;;;;23.16;48.38;100306.03;15557570;28;20050;-62
2021/10/03 16:54:22;;;;;;;1999.90;999.90;;;;;;;23.06;49.00;100332.59;15549616;28;20049;-61
2021/10/03 17:01:55;;;;;;;1999.90;999.90;;;;;;;22.87;48.44;100336.91;15546650;28;20487;-62
2021/10/03 17:09:30;;;;;;;1999.90;999.90;;;;;;;23.15;48.31;100355.66;15550673;28;20069;-63
2021/10/03 17:17:04;;;;;;;1999.90;999.90;;;;;;;22.76;48.37;100371.16;15545718;28;20388;-63
2021/10/03 17:24:38;;;;;;;1999.90;999.90;;;;;;;22.93;48.03;100366.50;15540105;28;20681;-62
2021/10/03 17:32:11;;;;;;;1999.90;999.90;;;;;;;22.90;48.61;100375.06;15544305;28;20041;-62
2021/10/03 17:39:45;;;;;;;1999.90;999.90;;;;;;;22.93;47.69;100380.75;15560698;28;20046;-60
2021/10/03 17:47:19;;;;;;;1999.90;999.90;;;;;;;22.47;48.33;100386.91;15545488;28;20053;-62
2021/10/03 17:54:52;;;;;;;1999.90;999.90;;;;;;;22.65;48.37;100395.25;15553622;28;20523;-62
2021/10/03 18:02:27;;;;;;;1999.90;999.90;;;;;;;22.41;48.41;100403.63;15541783;28;20052;-63
2021/10/03 18:10:07;;;;;;;1999.90;999.90;;;;;;;22.27;49.32;100400.13;15554883;28;20033;-61
2021/10/03 18:17:52;;;;;;;1999.90;999.90;;;;;;;22.55;49.08;100404.72;15491058;28;20058;-61
2021/10/03 18:25:39;;;;;;;1999.90;999.90;;;;;;;22.05;49.88;100405.16;15535937;28;20043;-59
2021/10/03 18:33:22;;;;;;;;;;;;;;;22.36;49.49;100421.13;15524280;28;20113;-60
2021/10/03 18:41:02;;;;;;;1999.90;999.90;;;;;;;22.41;49.53;100417.84;15542554;28;19955;-62
2021/10/03 18:48:40;;;;;;;1999.90;999.90;;;;;;;22.01;50.78;100444.16;15556902;28;20054;-63
2021/10/03 18:56:19;;;;;;;1999.90;999.90;;;;;;;21.93;50.75;100448.28;15548297;28;20045;-61
2021/10/03 19:03:54;;;;;;;1999.90;999.90;;;;;;;22.16;50.56;100451.38;15557427;28;20069;-63
2021/10/03 19:11:36;;;;;;;;;;;;;;;22.17;50.94;100444.44;15557770;28;20410;-62
2021/10/03 19:19:11;;;;;;;1999.90;999.90;;;;;;;21.76;51.40;100430.94;15556379;28;19975;-62
2021/10/03 19:26:48;;;;;;;1999.90;999.90;;;;;;;21.41;52.33;100439.69;15540551;28;20065;-61
2021/10/03 19:34:22;;;;;;;1999.90;999.90;;;;;;;21.76;51.70;100479.22;15557114;28;20073;-64
2021/10/03 19:42:10;;;;;;;1999.90;999.90;;;;;;;21.83;51.43;100493.38;15555490;28;20049;-63
2021/10/03 19:49:49;;;;;;;1999.90;999.90;;;;;;;21.65;51.85;100492.66;15532503;28;20057;-61
2021/10/03 19:57:29;;;;;;;1999.90;999.90;;;;;;;21.60;52.31;100490.28;15554693;28;20152;-61
2021/10/03 20:05:09;;;;;;;1999.90;999.90;;;;;;;21.43;52.31;100491.16;15565091;28;20648;-62
2021/10/03 20:13:00;;;;;;;1999.90;999.90;;;;;;;21.41;52.55;100491.56;15566517;28;20050;-62
2021/10/03 20:20:42;;;;;;;1999.90;999.90;;;;;;;21.37;52.43;100496.47;15540887;28;20570;-62
2021/10/03 20:28:20;;;;;;;1999.90;999.90;;;;;;;21.30;52.85;100507.84;15565499;28;20049;-62
2021/10/03 20:36:02;;;;;;;1999.90;999.90;;;;;;;21.14;53.14;100508.25;15566692;28;20145;-63
2021/10/03 20:43:38;;;;;;;1999.90;999.90;;;;;;;20.99;53.98;100516.00;15547894;28;20133;-60
2021/10/03 20:51:15;;;;;;;1999.90;999.90;;;;;;;21.16;53.65;100520.03;15571373;28;20044;-63
2021/10/03 20:58:51;;;;;;;1999.90;999.90;;;;;;;21.01;54.39;100532.63;15559732;28;20125;-62
2021/10/03 21:06:33;;;;;;;1999.90;999.90;;;;;;;21.25;54.09;100556.47;15555802;28;20088;-62
2021/10/03 21:14:08;;;;;;;1999.90;999.90;;;;;;;21.19;54.41;100572.31;15537813;28;20050;-64
2021/10/03 21:21:49;;;;;;;1999.90;999.90;;;;;;;21.20;55.82;100590.94;15558245;28;20474;-62
2021/10/03 21:29:24;;;;;;;1999.90;999.90;;;;;;;21.00;55.37;100587.72;15543279;28;20045;-62
2021/10/03 21:37:02;;;;;;;1999.90;999.90;;;;;;;20.69;55.49;100604.34;15560008;28;20084;-62
2021/10/03 21:44:35;;;;;;;1999.90;999.90;;;;;;;20.63;56.01;100611.63;15544231;28;20046;-60
2021/10/03 21:52:10;;;;;;;1999.90;999.90;;;;;;;20.72;56.38;100617.72;15561322;28;20049;-62
2021/10/03 21:59:43;;;;;;;1999.90;999.90;;;;;;;20.52;56.63;100633.50;15543353;28;20049;-62
2021/10/03 22:07:18;;;;;;;1999.90;999.90;;;;;;;20.36;57.34;100652.88;15559997;28;20049;-61
2021/10/03 22:14:51;;;;;;;1999.90;999.90;;;;;;;20.57;57.16;100661.47;15559425;28;20081;-63
2021/10/03 22:22:24;;;;;;;1999.90;999.90;;;;;;;20.56;56.85;100665.50;15558433;28;20038;-62
2021/10/03 22:29:57;;;;;;;1999.90;999.90;;;;;;;19.98;58.46;100677.84;15541151;28;20054;-62
2021/10/03 22:37:30;;;;;;;1999.90;999.90;;;;;;;20.12;58.25;100691.28;15541144;28;20132;-62
2021/10/03 22:45:03;;;;;;;1999.90;999.90;;;;;;;19.92;58.70;100675.81;15557643;28;20073;-61
2021/10/03 22:52:37;;;;;;;1999.90;999.90;;;;;;;20.18;59.29;100684.78;15572587;28;20041;-61
2021/10/03 23:00:12;;;;;;;1999.90;999.90;;;;;;;20.06;58.93;100696.50;15572627;28;20045;-63
2021/10/03 23:07:45;;;;;;;1999.90;999.90;;;;;;;20.30;59.04;100696.97;15524005;28;20092;-63
2021/10/03 23:15:18;;;;;;;1999.90;999.90;;;;;;;20.09;60.49;100695.69;15537752;28;20046;-63
2021/10/03 23:22:52;;;;;;;1999.90;999.90;;;;;;;19.95;61.72;100712.63;15551659;28;20121;-62
2021/10/03 23:30:24;;;;;;;1999.90;999.90;;;;;;;19.89;62.87;100725.53;15520627;28;20125;-61
2021/10/03 23:37:58;;;;;;;1999.90;999.90;;;;;;;19.83;62.96;100736.44;15525960;28;20651;-62
2021/10/03 23:45:30;;;;;;;1999.90;999.90;;;;;;;19.77;62.84;100735.16;15515752;28;20060;-61
2021/10/03 23:53:04;;;;;;;1999.90;999.90;;;;;;;19.85;62.59;100733.19;15555920;28;20046;-62
